Time;durP1;ratioP1;P1;durP2;ratioP2;P2;SDS_P1;SDS_P2;PMS_P1;PMS_P2;Temp;Humidity;BMP_temperature;BMP_pressure;BME280_temperature;BME280_humidity;BME280_pressure;Samples;Min_cycle;Max_cycle;Signal;HPM_P1;HPM_P2
2023/08/02 00:01:48;;;;;;;;;;;21.10;99.90;;;;;;5074288;28;19950;-69
2023/08/02 00:04:15;;;;;;;;;;;20.80;99.90;;;;;;5094297;28;20075;-69
2023/08/02 00:06:41;;;;;;;;;;;20.40;99.90;;;;;;5093234;28;20017;-69
2023/08/02 00:09:08;;;;;;;;;;;20.20;99.90;;;;;;5070193;28;20005;-69
2023/08/02 00:11:35;;;;;;;;;;;20.50;99.90;;;;;;5073913;28;25075;-70
2023/08/02 00:14:02;;;;;;;;;;;21.30;99.90;;;;;;5075311;28;20358;-70
2023/08/02 00:16:29;;;;;;;;;;;22.20;99.90;;;;;;5094575;28;20454;-69
2023/08/02 00:18:56;;;;;;;;;;;22.60;99.90;;;;;;5093466;28;19963;-69
2023/08/02 00:21:23;;;;;;;;;;;22.90;99.90;;;;;;5093652;28;20045;-70
2023/08/02 00:23:50;;;;;;;;;;;23.90;99.90;;;;;;5093279;28;25052;-70
2023/08/02 00:26:16;;;;;;;;;;;23.90;99.90;;;;;;5094050;28;25058;-69
2023/08/02 00:31:46;;;;;;;;;;;23.20;99.90;;;;;;5092719;28;20143;-68
2023/08/02 00:34:13;;;;;;;;;;;23.30;99.90;;;;;;5093347;28;20106;-69
2023/08/02 00:36:40;;;;;;;;;;;23.40;99.90;;;;;;5092989;28;20113;-70
2023/08/02 00:39:07;;;;;;;;;;;23.40;99.90;;;;;;5093729;28;20015;-71
2023/08/02 00:41:34;;;;;;;;;;;23.60;99.90;;;;;;5071091;28;19970;-70
2023/08/02 00:44:01;;;;;;;;;;;24.30;99.90;;;;;;5080922;28;25063;-71
2023/08/02 00:46:28;;;;;;;;;;;24.40;99.90;;;;;;5073368;28;20147;-70
2023/08/02 00:48:54;;;;;;;;;;;24.20;99.90;;;;;;5072736;28;20102;-70
2023/08/02 00:51:21;;;;;;;;;;;24.20;99.90;;;;;;5072355;28;20168;-70
2023/08/02 00:53:48;;;;;;;;;;;23.70;99.90;;;;;;5091698;28;20117;-70
2023/08/02 00:56:15;;;;;;;;;;;23.60;99.90;;;;;;5093155;28;20179;-69
2023/08/02 00:58:43;;;;;;;;;;;22.90;99.90;;;;;;5092156;28;20004;-70
2023/08/02 01:01:10;;;;;;;;;;;21.60;99.90;;;;;;5093506;28;20540;-68
2023/08/02 01:03:38;;;;;;;;;;;21.80;99.90;;;;;;5092357;28;25156;-67
2023/08/02 01:06:11;;;;;;;;;;;21.60;99.90;;;;;;5075017;28;24061;-67
2023/08/02 01:08:41;;;;;;;;;;;21.30;99.90;;;;;;5072824;28;19912;-68
2023/08/02 01:11:14;;;;;;;;;;;20.90;99.90;;;;;;5079079;28;20114;-68
2023/08/02 01:13:43;;;;;;;;;;;21.10;99.90;;;;;;5078827;28;24047;-68
2023/08/02 01:16:10;;;;;;;;;;;20.80;99.90;;;;;;5073692;28;19915;-68
2023/08/02 01:21:40;;;;;;;;;;;20.00;99.90;;;;;;5071627;28;19965;-69
2023/08/02 01:24:07;;;;;;;;;;;20.60;99.90;;;;;;5072118;28;25061;-69
2023/08/02 01:26:35;;;;;;;;;;;21.00;99.90;;;;;;5072509;28;25083;-69
2023/08/02 01:29:04;;;;;;;;;;;21.20;99.90;;;;;;5071769;28;20426;-70
2023/08/02 01:31:32;;;;;;;;;;;21.80;99.90;;;;;;5089005;28;25136;-69
2023/08/02 01:34:00;;;;;;;;;;;21.20;99.90;;;;;;5092550;28;19957;-70
2023/08/02 01:36:26;;;;;;;;;;;21.00;99.90;;;;;;5090988;28;19970;-69
2023/08/02 01:38:53;;;;;;;;;;;21.40;99.90;;;;;;5092554;28;19908;-69
2023/08/02 01:41:20;;;;;;;;;;;21.90;99.90;;;;;;5092500;28;20004;-69
2023/08/02 01:43:47;;;;;;;;;;;21.90;99.90;;;;;;5091477;28;20175;-69
2023/08/02 01:46:14;;;;;;;;;;;21.80;99.90;;;;;;5091667;28;20033;-70
2023/08/02 01:48:40;;;;;;;;;;;22.10;99.90;;;;;;5091367;28;19937;-70
2023/08/02 01:51:07;;;;;;;;;;;21.80;99.90;;;;;;5091724;28;19908;-69
2023/08/02 01:53:34;;;;;;;;;;;21.30;99.90;;;;;;5092070;28;24149;-69
2023/08/02 01:56:01;;;;;;;;;;;20.90;99.90;;;;;;5092696;28;20100;-69
2023/08/02 01:58:29;;;;;;;;;;;20.70;99.90;;;;;;5073027;28;20020;-69
2023/08/02 02:00:56;;;;;;;;;;;20.70;99.90;;;;;;5071334;28;20263;-68
2023/08/02 02:03:23;;;;;;;;;;;20.50;99.90;;;;;;5071490;28;20330;-68
2023/08/02 02:05:53;;;;;;;;;;;20.70;99.90;;;;;;5088474;28;24066;-70
2023/08/02 02:08:20;;;;;;;;;;;20.50;99.90;;;;;;5093336;28;19915;-69
2023/08/02 02:10:50;;;;;;;;;;;20.30;99.90;;;;;;5074288;28;19908;-69
2023/08/02 02:13:25;;;;;;;;;;;20.30;99.90;;;;;;5065630;28;19935;-70
2023/08/02 02:15:52;;;;;;;;;;;20.50;99.90;;;;;;5091597;28;25124;-69
2023/08/02 02:18:19;;;;;;;;;;;20.70;99.90;;;;;;5091434;28;19911;-69
2023/08/02 02:20:45;;;;;;;;;;;20.50;99.90;;;;;;5090304;28;24091;-69
2023/08/02 02:23:12;;;;;;;;;;;20.20;99.90;;;;;;5091337;28;24080;-69
2023/08/02 02:25:39;;;;;;;;;;;19.90;99.90;;;;;;5091713;28;19904;-69
2023/08/02 02:28:06;;;;;;;;;;;19.60;99.90;;;;;;5091033;28;24066;-70
2023/08/02 02:30:33;;;;;;;;;;;19.30;99.90;;;;;;5091009;28;19915;-69
2023/08/02 02:33:00;;;;;;;;;;;19.20;99.90;;;;;;5091474;28;24071;-69
2023/08/02 02:35:27;;;;;;;;;;;18.80;99.90;;;;;;5090981;28;19908;-69
2023/08/02 02:37:54;;;;;;;;;;;18.60;99.90;;;;;;5091518;28;20011;-69
2023/08/02 02:40:21;;;;;;;;;;;18.80;99.90;;;;;;5090934;28;24069;-70
2023/08/02 02:42:48;;;;;;;;;;;18.90;99.90;;;;;;5090892;28;24072;-70
2023/08/02 02:45:15;;;;;;;;;;;19.40;99.90;;;;;;5090770;28;19910;-70
2023/08/02 02:47:41;;;;;;;;;;;20.10;99.90;;;;;;5090811;28;19920;-70
2023/08/02 02:50:08;;;;;;;;;;;20.40;99.90;;;;;;5090564;28;24132;-69
2023/08/02 02:52:35;;;;;;;;;;;21.10;99.90;;;;;;5091207;28;19919;-68
2023/08/02 02:55:02;;;;;;;;;;;20.90;99.90;;;;;;5091218;28;19919;-69
2023/08/02 02:57:29;;;;;;;;;;;20.70;99.90;;;;;;5090435;28;20358;-69
2023/08/02 02:59:56;;;;;;;;;;;21.60;99.90;;;;;;5090947;28;19967;-69
2023/08/02 03:02:23;;;;;;;;;;;21.50;99.90;;;;;;5091133;28;19957;-70
2023/08/02 03:04:50;;;;;;;;;;;22.00;99.90;;;;;;5090189;28;19964;-70
2023/08/02 03:07:17;;;;;;;;;;;22.70;99.90;;;;;;5091066;28;19950;-69
2023/08/02 03:09:44;;;;;;;;;;;22.80;99.90;;;;;;5072703;28;19962;-70
2023/08/02 03:12:11;;;;;;;;;;;22.60;99.90;;;;;;5090512;28;20109;-69
2023/08/02 03:14:38;;;;;;;;;;;22.40;99.90;;;;;;5090697;28;20173;-70
2023/08/02 03:17:04;;;;;;;;;;;22.10;99.90;;;;;;5095244;28;25067;-70
2023/08/02 03:19:31;;;;;;;;;;;21.90;99.90;;;;;;5094846;28;20071;-70
2023/08/02 03:21:58;;;;;;;;;;;21.70;99.90;;;;;;5094792;28;20079;-69
2023/08/02 03:24:25;;;;;;;;;;;21.70;99.90;;;;;;5095242;28;19951;-69
2023/08/02 03:26:52;;;;;;;;;;;21.60;99.90;;;;;;5075512;28;20079;-70
2023/08/02 03:29:19;;;;;;;;;;;21.30;99.90;;;;;;5094357;28;25068;-70
2023/08/02 03:31:46;;;;;;;;;;;21.50;99.90;;;;;;5095737;28;19916;-69
2023/08/02 03:34:14;;;;;;;;;;;21.60;99.90;;;;;;5096306;28;20403;-69
2023/08/02 03:36:43;;;;;;;;;;;21.20;99.90;;;;;;5096049;28;20351;-70
2023/08/02 03:39:11;;;;;;;;;;;20.90;99.90;;;;;;5096861;28;24085;-69
2023/08/02 03:41:38;;;;;;;;;;;21.10;99.90;;;;;;5095922;28;20365;-70
2023/08/02 03:44:05;;;;;;;;;;;20.70;99.90;;;;;;5096005;28;19908;-70
2023/08/02 03:46:31;;;;;;;;;;;20.80;99.90;;;;;;5095542;28;19952;-70
2023/08/02 03:48:58;;;;;;;;;;;21.00;99.90;;;;;;5095856;28;20354;-69
2023/08/02 03:51:27;;;;;;;;;;;20.90;99.90;;;;;;5096220;28;19907;-69
2023/08/02 03:53:54;;;;;;;;;;;20.80;99.90;;;;;;5095369;28;19908;-69
2023/08/02 03:56:21;;;;;;;;;;;20.70;99.90;;;;;;5095566;28;19907;-69
2023/08/02 03:58:47;;;;;;;;;;;20.80;99.90;;;;;;5095800;28;20353;-68
2023/08/02 04:01:14;;;;;;;;;;;20.80;99.90;;;;;;5095879;28;19987;-68
2023/08/02 04:03:41;;;;;;;;;;;21.10;99.90;;;;;;5095424;28;19962;-68
2023/08/02 04:06:08;;;;;;;;;;;21.10;99.90;;;;;;5095283;28;19915;-67
2023/08/02 04:08:35;;;;;;;;;;;21.10;99.90;;;;;;5091484;28;25122;-69
2023/08/02 04:11:06;;;;;;;;;;;20.90;99.90;;;;;;5096099;28;19912;-68
2023/08/02 04:13:33;;;;;;;;;;;20.80;99.90;;;;;;5095470;28;24124;-69
2023/08/02 04:16:03;;;;;;;;;;;20.40;99.90;;;;;;5095398;28;19904;-68
2023/08/02 04:18:29;;;;;;;;;;;20.30;99.90;;;;;;5095062;28;25051;-69
2023/08/02 04:20:59;;;;;;;;;;;20.50;99.90;;;;;;5095327;28;19904;-68
2023/08/02 04:23:26;;;;;;;;;;;20.40;99.90;;;;;;5095033;28;19931;-69
2023/08/02 04:25:53;;;;;;;;;;;20.40;99.90;;;;;;5095371;28;20430;-70
2023/08/02 04:28:20;;;;;;;;;;;20.70;99.90;;;;;;5076742;28;25114;-69
2023/08/02 04:30:50;;;;;;;;;;;20.50;99.90;;;;;;5095231;28;24106;-69
2023/08/02 04:33:17;;;;;;;;;;;20.60;99.90;;;;;;5096519;28;24099;-69
2023/08/02 04:35:44;;;;;;;;;;;20.50;99.90;;;;;;5082790;28;24101;-70
2023/08/02 04:38:11;;;;;;;;;;;20.60;99.90;;;;;;5094665;28;24112;-69
2023/08/02 04:40:38;;;;;;;;;;;20.50;99.90;;;;;;5094495;28;19911;-69
2023/08/02 04:43:05;;;;;;;;;;;20.30;99.90;;;;;;5094561;28;25116;-69
2023/08/02 04:45:32;;;;;;;;;;;20.40;99.90;;;;;;5094763;28;19908;-69
2023/08/02 04:47:59;;;;;;;;;;;20.30;99.90;;;;;;5094616;28;25069;-69
2023/08/02 04:50:26;;;;;;;;;;;20.10;99.90;;;;;;5094388;28;19904;-69
2023/08/02 04:52:53;;;;;;;;;;;20.20;99.90;;;;;;5088032;28;25145;-70
2023/08/02 04:55:20;;;;;;;;;;;20.40;99.90;;;;;;5093245;28;24087;-69
2023/08/02 04:57:48;;;;;;;;;;;20.50;99.90;;;;;;5086625;28;20281;-69
2023/08/02 05:00:15;;;;;;;;;;;20.60;99.90;;;;;;5084239;28;24070;-70
2023/08/02 05:02:41;;;;;;;;;;;20.60;99.90;;;;;;5092211;28;19950;-69
2023/08/02 05:05:09;;;;;;;;;;;20.60;99.90;;;;;;5090693;28;19912;-68
2023/08/02 05:07:36;;;;;;;;;;;20.90;99.90;;;;;;5091855;28;19910;-70
2023/08/02 05:10:05;;;;;;;;;;;21.20;99.90;;;;;;5092129;28;20031;-69
2023/08/02 05:12:36;;;;;;;;;;;21.50;99.90;;;;;;5092039;28;20005;-69
2023/08/02 05:15:03;;;;;;;;;;;21.70;99.90;;;;;;5090888;28;20078;-70
2023/08/02 05:17:30;;;;;;;;;;;21.70;99.90;;;;;;5091886;28;20094;-69
2023/08/02 05:19:57;;;;;;;;;;;21.60;99.90;;;;;;5082247;28;19966;-69
2023/08/02 05:22:24;;;;;;;;;;;21.70;99.90;;;;;;5076539;28;25076;-70
2023/08/02 05:24:51;;;;;;;;;;;21.40;99.90;;;;;;5101526;28;20014;-69
2023/08/02 05:27:18;;;;;;;;;;;21.20;99.90;;;;;;5099476;28;19904;-69
2023/08/02 05:29:44;;;;;;;;;;;20.70;99.90;;;;;;5091263;28;19904;-69
2023/08/02 05:32:11;;;;;;;;;;;20.50;99.90;;;;;;5093322;28;19920;-69
2023/08/02 05:34:38;;;;;;;;;;;20.40;99.90;;;;;;5091886;28;24065;-69
2023/08/02 05:37:05;;;;;;;;;;;20.10;99.90;;;;;;5090507;28;25160;-68
2023/08/02 05:39:31;;;;;;;;;;;19.80;99.90;;;;;;5091905;28;19908;-69
2023/08/02 05:41:58;;;;;;;;;;;19.70;99.90;;;;;;5091892;28;20357;-69
2023/08/02 05:44:24;;;;;;;;;;;19.60;99.90;;;;;;5090857;28;20289;-69
2023/08/02 05:46:51;;;;;;;;;;;19.60;99.90;;;;;;5091073;28;24164;-69
2023/08/02 05:49:18;;;;;;;;;;;19.70;99.90;;;;;;5092828;28;20379;-69
2023/08/02 05:51:44;;;;;;;;;;;19.70;99.90;;;;;;5091348;28;20401;-69
2023/08/02 05:54:11;;;;;;;;;;;19.60;99.90;;;;;;5092101;28;19904;-69
2023/08/02 05:56:38;;;;;;;;;;;19.60;99.90;;;;;;5091176;28;24110;-69
2023/08/02 05:59:06;;;;;;;;;;;19.40;99.90;;;;;;5072949;28;25063;-70
2023/08/02 06:01:32;;;;;;;;;;;19.30;99.90;;;;;;5075751;28;19908;-68
2023/08/02 06:03:59;;;;;;;;;;;19.10;99.90;;;;;;5075834;28;24163;-69
2023/08/02 06:06:26;;;;;;;;;;;19.10;99.90;;;;;;5090754;28;19961;-69
2023/08/02 06:08:53;;;;;;;;;;;19.20;99.90;;;;;;5091723;28;20417;-69
2023/08/02 06:11:19;;;;;;;;;;;19.30;99.90;;;;;;5091905;28;20015;-69
2023/08/02 06:13:46;;;;;;;;;;;19.20;99.90;;;;;;5090448;28;19915;-69
2023/08/02 06:16:13;;;;;;;;;;;19.20;99.90;;;;;;5091050;28;19908;-69
2023/08/02 06:18:39;;;;;;;;;;;19.10;99.90;;;;;;5091830;28;19908;-68
2023/08/02 06:21:06;;;;;;;;;;;19.00;99.90;;;;;;5091034;28;24053;-68
2023/08/02 06:23:33;;;;;;;;;;;18.80;99.90;;;;;;5090854;28;19963;-68
2023/08/02 06:25:59;;;;;;;;;;;18.60;99.90;;;;;;5091308;28;24054;-68
2023/08/02 06:28:26;;;;;;;;;;;18.60;99.90;;;;;;5092170;28;24149;-69
2023/08/02 06:30:53;;;;;;;;;;;18.50;99.90;;;;;;5091597;28;19904;-69
2023/08/02 06:33:19;;;;;;;;;;;18.20;99.90;;;;;;5093435;28;19908;-68
2023/08/02 06:35:46;;;;;;;;;;;18.10;99.90;;;;;;5093008;28;19915;-69
2023/08/02 06:38:13;;;;;;;;;;;18.00;99.90;;;;;;5093114;28;19908;-70
2023/08/02 06:40:39;;;;;;;;;;;17.90;99.90;;;;;;5089552;28;24051;-70
2023/08/02 06:43:06;;;;;;;;;;;17.90;99.90;;;;;;5091858;28;20016;-70
2023/08/02 06:45:33;;;;;;;;;;;17.90;99.90;;;;;;5092664;28;19904;-71
2023/08/02 06:47:59;;;;;;;;;;;17.90;99.90;;;;;;5092652;28;19955;-71
2023/08/02 06:50:26;;;;;;;;;;;17.80;99.90;;;;;;5093130;28;25140;-71
2023/08/02 06:52:53;;;;;;;;;;;17.80;99.90;;;;;;5092720;28;20004;-71
2023/08/02 06:55:19;;;;;;;;;;;17.60;99.90;;;;;;5093183;28;19904;-71
2023/08/02 06:57:46;;;;;;;;;;;17.40;99.90;;;;;;5092853;28;24068;-71
2023/08/02 07:00:13;;;;;;;;;;;17.40;99.90;;;;;;5092941;28;24078;-71
2023/08/02 07:02:40;;;;;;;;;;;17.30;99.90;;;;;;5092098;28;19910;-71
2023/08/02 07:05:07;;;;;;;;;;;17.40;99.90;;;;;;5093024;28;19904;-71
2023/08/02 07:07:33;;;;;;;;;;;17.30;99.90;;;;;;5092205;28;20284;-71
2023/08/02 07:10:00;;;;;;;;;;;17.20;99.90;;;;;;5092461;28;24076;-71
2023/08/02 07:12:27;;;;;;;;;;;17.20;99.90;;;;;;5092456;28;20003;-69
2023/08/02 07:14:53;;;;;;;;;;;17.10;99.90;;;;;;5092476;28;20339;-72
2023/08/02 07:17:20;;;;;;;;;;;17.10;99.90;;;;;;5093010;28;19903;-70
2023/08/02 07:19:48;;;;;;;;;;;17.00;99.90;;;;;;5092590;28;25085;-69
2023/08/02 07:22:17;;;;;;;;;;;16.80;99.90;;;;;;5092268;28;24104;-71
2023/08/02 07:24:44;;;;;;;;;;;16.70;99.90;;;;;;5092250;28;24089;-69
2023/08/02 07:27:11;;;;;;;;;;;16.60;99.90;;;;;;5092363;28;20350;-69
2023/08/02 07:29:37;;;;;;;;;;;16.70;99.90;;;;;;5092481;28;19904;-70
2023/08/02 07:32:04;;;;;;;;;;;16.70;99.90;;;;;;5092541;28;20402;-69
2023/08/02 07:34:33;;;;;;;;;;;16.70;99.90;;;;;;5092074;28;20346;-69
2023/08/02 07:36:59;;;;;;;;;;;16.60;99.90;;;;;;5092317;28;19904;-69
2023/08/02 07:39:26;;;;;;;;;;;16.50;99.90;;;;;;5092382;28;24051;-69
2023/08/02 07:41:53;;;;;;;;;;;16.40;99.90;;;;;;5074086;28;19908;-71
2023/08/02 07:44:19;;;;;;;;;;;16.40;99.90;;;;;;5092234;28;20346;-70
2023/08/02 07:46:46;;;;;;;;;;;16.30;99.90;;;;;;5092219;28;19960;-68
2023/08/02 07:49:13;;;;;;;;;;;16.20;99.90;;;;;;5092086;28;24105;-69
2023/08/02 07:51:39;;;;;;;;;;;16.30;99.90;;;;;;5092372;28;19989;-70
2023/08/02 07:54:06;;;;;;;;;;;16.20;99.90;;;;;;5092460;28;19940;-70
2023/08/02 07:56:33;;;;;;;;;;;16.10;99.90;;;;;;5092660;28;19994;-70
2023/08/02 07:58:59;;;;;;;;;;;16.10;99.90;;;;;;5092344;28;20015;-70
2023/08/02 08:01:26;;;;;;;;;;;16.00;99.90;;;;;;5093752;28;19994;-69
2023/08/02 08:03:53;;;;;;;;;;;15.90;99.90;;;;;;5096372;28;24056;-70
2023/08/02 08:06:23;;;;;;;;;;;15.90;99.90;;;;;;5096028;28;20044;-70
2023/08/02 08:08:50;;;;;;;;;;;15.80;99.90;;;;;;5096129;28;20051;-70
2023/08/02 08:11:17;;;;;;;;;;;15.70;99.90;;;;;;5095584;28;20049;-70
2023/08/02 08:13:44;;;;;;;;;;;15.70;99.90;;;;;;5095982;28;20345;-69
2023/08/02 08:16:10;;;;;;;;;;;15.50;99.90;;;;;;5095727;28;20031;-69
2023/08/02 08:18:37;;;;;;;;;;;15.30;99.90;;;;;;5095819;28;25131;-70
2023/08/02 08:21:04;;;;;;;;;;;15.20;99.90;;;;;;5077097;28;19991;-70
2023/08/02 08:23:31;;;;;;;;;;;15.10;99.90;;;;;;5077305;28;20319;-70
2023/08/02 08:25:58;;;;;;;;;;;14.90;99.90;;;;;;5095946;28;20117;-70
2023/08/02 08:28:25;;;;;;;;;;;14.80;99.90;;;;;;5077293;28;24075;-70
2023/08/02 08:31:04;;;;;;;;;;;14.80;99.90;;;;;;5095292;28;19960;-72
2023/08/02 08:33:31;;;;;;;;;;;14.70;99.90;;;;;;5095434;28;20357;-70
2023/08/02 08:35:58;;;;;;;;;;;14.60;99.90;;;;;;5095155;28;19904;-70
2023/08/02 08:38:24;;;;;;;;;;;14.50;99.90;;;;;;5095653;28;19911;-71
2023/08/02 08:40:54;;;;;;;;;;;14.40;99.90;;;;;;5094931;28;19998;-70
2023/08/02 08:43:25;;;;;;;;;;;14.30;99.90;;;;;;5095368;28;19904;-70
2023/08/02 08:45:53;;;;;;;;;;;14.20;99.90;;;;;;5095340;28;19915;-70
2023/08/02 08:48:20;;;;;;;;;;;14.10;99.90;;;;;;5095184;28;24081;-70
2023/08/02 08:50:47;;;;;;;;;;;14.00;99.90;;;;;;5095206;28;24079;-69
2023/08/02 08:53:17;;;;;;;;;;;13.90;99.90;;;;;;5076833;28;24063;-70
2023/08/02 08:55:45;;;;;;;;;;;13.90;99.90;;;;;;5094827;28;20000;-70
2023/08/02 08:58:12;;;;;;;;;;;13.70;99.90;;;;;;5095238;28;20036;-70
2023/08/02 09:00:39;;;;;;;;;;;13.70;99.90;;;;;;5094812;28;19917;-70
2023/08/02 09:03:06;;;;;;;;;;;13.60;99.90;;;;;;5094877;28;20364;-70
2023/08/02 09:05:33;;;;;;;;;;;13.60;99.90;;;;;;5094872;28;19931;-70
2023/08/02 09:07:59;;;;;;;;;;;13.50;99.90;;;;;;5095084;28;20350;-70
2023/08/02 09:10:29;;;;;;;;;;;13.40;99.90;;;;;;5094770;28;24081;-70
2023/08/02 09:12:55;;;;;;;;;;;13.40;99.90;;;;;;5094544;28;19912;-70
2023/08/02 09:15:22;;;;;;;;;;;13.30;99.90;;;;;;5094819;28;25089;-70
2023/08/02 09:17:50;;;;;;;;;;;13.20;99.90;;;;;;5094801;28;19904;-71
2023/08/02 09:20:18;;;;;;;;;;;13.20;99.90;;;;;;5094802;28;19911;-70
2023/08/02 09:22:44;;;;;;;;;;;13.20;99.90;;;;;;5094311;28;24128;-70
2023/08/02 09:25:21;;;;;;;;;;;13.10;99.90;;;;;;5076416;28;19904;-70
2023/08/02 09:27:48;;;;;;;;;;;13.10;99.90;;;;;;5094525;28;19911;-70
2023/08/02 09:30:25;;;;;;;;;;;13.00;99.90;;;;;;5094206;28;20265;-70
2023/08/02 09:33:01;;;;;;;;;;;13.00;99.90;;;;;;5094264;28;19916;-70
2023/08/02 09:35:28;;;;;;;;;;;12.90;99.90;;;;;;5094599;28;19904;-71
2023/08/02 09:37:55;;;;;;;;;;;12.90;99.90;;;;;;5094014;28;24059;-68
2023/08/02 09:40:34;;;;;;;;;;;12.90;99.90;;;;;;5094193;28;19911;-71
2023/08/02 09:43:02;;;;;;;;;;;12.90;99.90;;;;;;5094062;28;19904;-70
2023/08/02 09:45:33;;;;;;;;;;;12.90;99.90;;;;;;5093992;28;20334;-68
2023/08/02 09:48:00;;;;;;;;;;;12.80;99.90;;;;;;5093794;28;20401;-69
2023/08/02 09:50:27;;;;;;;;;;;12.80;99.90;;;;;;5093887;28;19904;-69
2023/08/02 09:52:53;;;;;;;;;;;12.70;99.90;;;;;;5093592;28;19911;-69
2023/08/02 09:55:21;;;;;;;;;;;12.70;99.90;;;;;;5094273;28;19957;-68
2023/08/02 09:57:48;;;;;;;;;;;12.60;99.90;;;;;;5094154;28;24109;-69
2023/08/02 10:00:15;;;;;;;;;;;12.60;99.90;;;;;;5093890;28;20017;-68
2023/08/02 10:02:42;;;;;;;;;;;12.50;99.90;;;;;;5093851;28;19943;-68
2023/08/02 10:05:15;;;;;;;;;;;12.50;99.90;;;;;;5093593;28;24090;-68
2023/08/02 10:07:47;;;;;;;;;;;12.50;99.90;;;;;;5077034;28;19904;-69
2023/08/02 10:10:23;;;;;;;;;;;12.40;99.90;;;;;;5093792;28;24083;-69
2023/08/02 10:12:56;;;;;;;;;;;12.40;99.90;;;;;;5093741;28;19916;-69
2023/08/02 10:15:23;;;;;;;;;;;12.30;99.90;;;;;;5094045;28;24088;-69
2023/08/02 10:17:49;;;;;;;;;;;12.30;99.90;;;;;;5093749;28;19911;-69
2023/08/02 10:20:16;;;;;;;;;;;12.20;99.90;;;;;;5093746;28;19927;-70
2023/08/02 10:22:43;;;;;;;;;;;12.20;99.90;;;;;;5075162;28;19907;-69
2023/08/02 10:25:13;;;;;;;;;;;12.20;99.90;;;;;;5093038;28;24116;-69
2023/08/02 10:27:40;;;;;;;;;;;12.10;99.90;;;;;;5093329;28;24860;-70
2023/08/02 10:30:08;;;;;;;;;;;12.10;99.90;;;;;;5075342;28;20354;-69
2023/08/02 10:32:35;;;;;;;;;;;12.10;99.90;;;;;;5093145;28;19919;-69
2023/08/02 10:35:02;;;;;;;;;;;12.10;99.90;;;;;;5093400;28;24076;-69
2023/08/02 10:37:47;;;;;;;;;;;12.00;99.90;;;;;;5093619;28;24077;-69
2023/08/02 10:40:13;;;;;;;;;;;12.00;99.90;;;;;;5093165;28;19903;-69
2023/08/02 10:43:00;;;;;;;;;;;11.90;99.90;;;;;;5093128;28;19904;-68
2023/08/02 10:45:26;;;;;;;;;;;11.90;99.90;;;;;;5093447;28;19911;-70
2023/08/02 10:48:13;;;;;;;;;;;11.90;99.90;;;;;;5093205;28;19923;-70
2023/08/02 10:50:44;;;;;;;;;;;11.80;99.90;;;;;;5093590;28;19911;-70
2023/08/02 10:53:12;;;;;;;;;;;11.80;99.90;;;;;;5092801;28;24085;-69
2023/08/02 10:55:58;;;;;;;;;;;11.80;99.90;;;;;;5075190;28;20268;-69
2023/08/02 10:58:25;;;;;;;;;;;11.70;99.90;;;;;;5093425;28;20303;-69
2023/08/02 11:01:08;;;;;;;;;;;11.70;99.90;;;;;;5093459;28;19911;-69
2023/08/02 11:03:35;;;;;;;;;;;11.70;99.90;;;;;;5093404;28;24096;-69
2023/08/02 11:06:02;;;;;;;;;;;11.60;99.90;;;;;;5093114;28;19908;-68
2023/08/02 11:08:29;;;;;;;;;;;11.60;99.90;;;;;;5093470;28;19910;-69
2023/08/02 11:10:56;;;;;;;;;;;11.50;99.90;;;;;;5093205;28;24068;-69
2023/08/02 11:13:23;;;;;;;;;;;11.50;99.90;;;;;;5093199;28;19912;-69
2023/08/02 11:16:01;;;;;;;;;;;11.50;99.90;;;;;;5093247;28;19927;-70
2023/08/02 11:18:30;;;;;;;;;;;11.40;99.90;;;;;;5093305;28;24063;-69
2023/08/02 11:21:06;;;;;;;;;;;11.40;99.90;;;;;;5093591;28;19908;-69
2023/08/02 11:23:33;;;;;;;;;;;11.30;99.90;;;;;;5093720;28;19930;-69
2023/08/02 11:26:09;;;;;;;;;;;11.30;99.90;;;;;;5093556;28;19904;-69
2023/08/02 11:28:43;;;;;;;;;;;11.30;99.90;;;;;;5075172;28;24070;-69
2023/08/02 11:31:13;;;;;;;;;;;11.30;99.90;;;;;;5093200;28;19911;-69
2023/08/02 11:33:40;;;;;;;;;;;11.30;99.90;;;;;;5093692;28;20430;-69
2023/08/02 11:36:07;;;;;;;;;;;11.20;99.90;;;;;;5095320;28;19904;-69
2023/08/02 11:38:35;;;;;;;;;;;11.20;99.90;;;;;;5097451;28;19911;-69
2023/08/02 11:41:02;;;;;;;;;;;11.20;99.90;;;;;;5097122;28;24063;-69
2023/08/02 11:43:35;;;;;;;;;;;11.20;99.90;;;;;;5097066;28;19904;-69
2023/08/02 11:46:14;;;;;;;;;;;11.30;99.90;;;;;;5097231;28;19915;-69
2023/08/02 11:48:41;;;;;;;;;;;11.30;99.90;;;;;;5097138;28;19959;-69
2023/08/02 11:51:12;;;;;;;;;;;11.40;99.90;;;;;;5096651;28;19948;-69
2023/08/02 11:53:54;;;;;;;;;;;11.40;99.90;;;;;;5096810;28;19908;-69
2023/08/02 11:56:21;;;;;;;;;;;11.50;99.90;;;;;;5096762;28;19904;-69
2023/08/02 11:58:49;;;;;;;;;;;11.50;99.90;;;;;;5096708;28;19907;-69
2023/08/02 12:01:16;;;;;;;;;;;11.60;99.90;;;;;;5096320;28;20025;-69
2023/08/02 12:03:59;;;;;;;;;;;11.60;99.90;;;;;;5096644;28;20013;-70
2023/08/02 12:06:26;;;;;;;;;;;11.60;99.90;;;;;;5096019;28;19972;-69
2023/08/02 12:08:53;;;;;;;;;;;11.60;99.90;;;;;;5096383;28;20376;-69
2023/08/02 12:11:20;;;;;;;;;;;11.50;99.90;;;;;;5096263;28;19915;-69
2023/08/02 12:13:46;;;;;;;;;;;11.50;99.90;;;;;;5096356;28;19940;-69
2023/08/02 12:16:15;;;;;;;;;;;11.40;99.90;;;;;;5096264;28;19908;-69
2023/08/02 12:18:54;;;;;;;;;;;11.30;99.90;;;;;;5096062;28;19908;-69
2023/08/02 12:21:21;;;;;;;;;;;11.30;99.90;;;;;;5096062;28;25105;-69
2023/08/02 12:23:48;;;;;;;;;;;11.20;99.90;;;;;;5096163;28;19911;-69
2023/08/02 12:26:35;;;;;;;;;;;11.20;99.90;;;;;;5096194;28;19904;-69
2023/08/02 12:29:02;;;;;;;;;;;11.10;99.90;;;;;;5095927;28;20272;-70
2023/08/02 12:31:39;;;;;;;;;;;11.10;99.90;;;;;;5095816;28;19912;-69
2023/08/02 12:34:06;;;;;;;;;;;11.00;99.90;;;;;;5096145;28;20026;-69
2023/08/02 12:36:33;;;;;;;;;;;11.00;99.90;;;;;;5095726;28;19908;-70
2023/08/02 12:38:59;;;;;;;;;;;10.90;99.90;;;;;;5095853;28;19994;-70
2023/08/02 12:41:28;;;;;;;;;;;10.90;99.90;;;;;;5095458;28;24056;-69
2023/08/02 12:43:54;;;;;;;;;;;10.80;99.90;;;;;;5095643;28;19926;-69
2023/08/02 12:46:21;;;;;;;;;;;10.80;99.90;;;;;;5095627;28;20094;-70
2023/08/02 12:48:51;;;;;;;;;;;10.80;99.90;;;;;;5095939;28;19919;-69
2023/08/02 12:51:18;;;;;;;;;;;10.70;99.90;;;;;;5095384;28;19949;-69
2023/08/02 12:53:45;;;;;;;;;;;10.70;99.90;;;;;;5095858;28;19904;-69
2023/08/02 12:56:12;;;;;;;;;;;10.60;99.90;;;;;;5095553;28;19904;-69
2023/08/02 12:58:39;;;;;;;;;;;10.70;99.90;;;;;;5095350;28;24073;-68
2023/08/02 13:01:05;;;;;;;;;;;10.70;99.90;;;;;;5095159;28;20378;-69
2023/08/02 13:03:32;;;;;;;;;;;10.60;99.90;;;;;;5095615;28;24061;-70
2023/08/02 13:05:59;;;;;;;;;;;10.60;99.90;;;;;;5095335;28;19911;-69
2023/08/02 13:08:25;;;;;;;;;;;10.50;99.90;;;;;;5094089;28;20020;-71
2023/08/02 13:10:52;;;;;;;;;;;10.50;99.90;;;;;;5075480;28;19995;-71
2023/08/02 13:13:19;;;;;;;;;;;10.50;99.90;;;;;;5086602;28;24075;-70
2023/08/02 13:15:46;;;;;;;;;;;10.50;99.90;;;;;;5081141;28;19970;-71
2023/08/02 13:18:12;;;;;;;;;;;10.40;99.90;;;;;;5084872;28;19923;-70
2023/08/02 13:20:39;;;;;;;;;;;10.40;99.90;;;;;;5092252;28;20346;-71
2023/08/02 13:23:06;;;;;;;;;;;10.40;99.90;;;;;;5092867;28;19915;-71
2023/08/02 13:25:33;;;;;;;;;;;10.30;99.90;;;;;;5092882;28;19918;-71
2023/08/02 13:28:01;;;;;;;;;;;10.30;99.90;;;;;;5092906;28;19918;-70
2023/08/02 13:30:27;;;;;;;;;;;10.30;99.90;;;;;;5093036;28;20361;-69
2023/08/02 13:32:54;;;;;;;;;;;10.20;99.90;;;;;;5092713;28;19919;-70
2023/08/02 13:35:21;;;;;;;;;;;10.20;99.90;;;;;;5092488;28;24051;-70
2023/08/02 13:37:47;;;;;;;;;;;10.10;99.90;;;;;;5092750;28;24071;-69
2023/08/02 13:40:15;;;;;;;;;;;10.10;99.90;;;;;;5092261;28;25154;-70
2023/08/02 13:42:42;;;;;;;;;;;10.10;99.90;;;;;;5092973;28;24126;-69
2023/08/02 13:45:09;;;;;;;;;;;10.10;99.90;;;;;;5092952;28;24074;-70
2023/08/02 13:47:36;;;;;;;;;;;10.10;99.90;;;;;;5070549;28;20003;-71
2023/08/02 13:50:03;;;;;;;;;;;10.10;99.90;;;;;;5073739;28;20049;-70
2023/08/02 13:52:29;;;;;;;;;;;10.00;99.90;;;;;;5073290;28;20006;-71
2023/08/02 13:54:56;;;;;;;;;;;10.00;99.90;;;;;;5068775;28;19911;-71
2023/08/02 13:57:23;;;;;;;;;;;10.10;99.90;;;;;;5073324;28;24137;-69
2023/08/02 13:59:49;;;;;;;;;;;10.00;99.90;;;;;;5073052;28;20399;-70
2023/08/02 14:02:16;;;;;;;;;;;10.00;99.90;;;;;;5072900;28;19942;-70
2023/08/02 14:04:43;;;;;;;;;;;10.00;99.90;;;;;;5072765;28;20246;-69
2023/08/02 14:07:11;;;;;;;;;;;9.90;99.90;;;;;;5073687;28;19995;-70
2023/08/02 14:09:40;;;;;;;;;;;9.90;99.90;;;;;;5073299;28;24081;-68
2023/08/02 14:12:09;;;;;;;;;;;10.00;99.90;;;;;;5072483;28;19923;-69
2023/08/02 14:14:36;;;;;;;;;;;10.00;99.90;;;;;;5073301;28;19986;-69
2023/08/02 14:17:02;;;;;;;;;;;10.00;99.90;;;;;;5072429;28;20289;-70
2023/08/02 14:19:29;;;;;;;;;;;10.00;99.90;;;;;;5071656;28;19927;-71
2023/08/02 14:21:56;;;;;;;;;;;9.90;99.90;;;;;;5071807;28;19905;-70
2023/08/02 14:24:25;;;;;;;;;;;9.90;99.90;;;;;;5073104;28;19913;-70
2023/08/02 14:26:51;;;;;;;;;;;9.90;99.90;;;;;;5072519;28;24075;-70